createdAt,value
2023-04-15T00:02:26.351Z,59.22
2023-04-15T00:05:12.538Z,58.11
2023-04-15T00:07:58.521Z,58.35
2023-04-15T00:10:44.421Z,57.77
2023-04-15T00:13:30.321Z,57.57
2023-04-15T00:16:16.346Z,58.23
2023-04-15T00:19:02.566Z,58.42
2023-04-15T00:21:48.729Z,58.56
2023-04-15T00:24:34.744Z,57.91
2023-04-15T00:27:20.649Z,58.43
2023-04-15T00:30:06.707Z,58.11
2023-04-15T00:32:52.847Z,57.91
2023-04-15T00:35:38.806Z,58.09
2023-04-15T00:38:24.800Z,59.11
2023-04-15T00:41:10.772Z,62.10
2023-04-15T00:43:56.609Z,63.04
2023-04-15T00:46:42.662Z,65.52
2023-04-15T00:49:28.418Z,66.15
2023-04-15T00:52:14.312Z,65.67
2023-04-15T00:55:00.316Z,67.34
2023-04-15T00:57:46.126Z,68.17
2023-04-15T01:00:32.043Z,66.66
2023-04-15T01:03:18.265Z,68.26
2023-04-15T01:06:04.485Z,67.70
2023-04-15T01:08:50.535Z,67.09
2023-04-15T01:11:36.418Z,66.54
2023-04-15T01:14:22.439Z,65.67
2023-04-15T01:17:08.260Z,66.39
2023-04-15T01:19:54.101Z,65.78
2023-04-15T01:22:40.047Z,65.56
2023-04-15T01:25:25.901Z,65.40
2023-04-15T01:28:12.264Z,64.74
2023-04-15T01:30:58.188Z,64.86
2023-04-15T01:33:44.085Z,64.17
2023-04-15T01:36:30.007Z,63.68
2023-04-15T01:39:15.982Z,64.44
2023-04-15T01:42:01.832Z,65.01
2023-04-15T01:44:49.826Z,63.88
2023-04-15T01:47:35.668Z,63.67
2023-04-15T01:50:21.584Z,63.77
2023-04-15T01:53:07.507Z,63.90
2023-04-15T01:55:53.439Z,63.82
2023-04-15T01:58:40.486Z,63.44
2023-04-15T02:01:26.768Z,63.54
2023-04-15T02:04:12.922Z,62.68
2023-04-15T02:06:58.885Z,63.05
2023-04-15T02:09:44.820Z,63.18
2023-04-15T02:12:30.813Z,62.54
2023-04-15T02:15:16.697Z,62.90
2023-04-15T02:18:02.778Z,64.25
2023-04-15T02:20:48.784Z,64.40
2023-04-15T02:23:34.677Z,63.74
2023-04-15T02:26:20.544Z,63.40
2023-04-15T02:29:07.866Z,62.78
2023-04-15T02:31:53.816Z,63.93
2023-04-15T02:34:39.624Z,64.60
2023-04-15T02:37:25.617Z,64.43
2023-04-15T02:40:11.497Z,63.52
2023-04-15T02:42:57.220Z,64.96
2023-04-15T02:45:43.088Z,64.26
2023-04-15T02:48:28.900Z,65.38
2023-04-15T02:51:14.788Z,65.30
2023-04-15T02:54:00.677Z,65.73
2023-04-15T02:56:46.306Z,65.60
2023-04-15T02:59:32.195Z,63.54
2023-04-15T03:02:18.173Z,63.18
2023-04-15T03:05:04.394Z,62.78
2023-04-15T03:07:50.383Z,61.88
2023-04-15T03:10:36.311Z,62.72
2023-04-15T03:13:22.520Z,62.30
2023-04-15T03:16:08.587Z,61.84
2023-04-15T03:18:54.524Z,61.73
2023-04-15T03:21:40.464Z,61.30
2023-04-15T03:24:26.291Z,61.83
2023-04-15T03:27:12.097Z,61.44
2023-04-15T03:29:58.018Z,61.25
2023-04-15T03:32:43.922Z,60.81
2023-04-15T03:35:29.962Z,61.95
2023-04-15T03:38:15.896Z,62.54
2023-04-15T03:41:01.669Z,63.13
2023-04-15T03:43:47.665Z,62.73
2023-04-15T03:46:33.403Z,62.63
2023-04-15T03:49:19.250Z,61.86
2023-04-15T03:52:05.131Z,62.55
2023-04-15T03:54:50.933Z,63.39
2023-04-15T03:57:36.811Z,63.68
2023-04-15T04:00:22.763Z,63.03
2023-04-15T04:03:08.651Z,62.67
2023-04-15T04:05:55.262Z,62.19
2023-04-15T04:08:41.083Z,63.02
2023-04-15T04:11:27.114Z,63.71
2023-04-15T04:14:13.049Z,63.84
2023-04-15T04:16:58.848Z,63.42
2023-04-15T04:19:44.724Z,63.23
2023-04-15T04:22:30.585Z,63.48
2023-04-15T04:25:16.435Z,63.81
2023-04-15T04:28:02.397Z,64.07
2023-04-15T04:30:48.267Z,64.19
2023-04-15T04:33:34.083Z,64.35
2023-04-15T04:36:20.159Z,63.52
2023-04-15T04:39:06.008Z,64.17
2023-04-15T04:41:51.941Z,63.86
2023-04-15T04:44:37.830Z,63.37
2023-04-15T04:47:23.720Z,64.19
2023-04-15T04:50:09.599Z,66.21
2023-04-15T04:52:55.357Z,65.25
2023-04-15T04:55:41.356Z,66.29
2023-04-15T04:58:27.184Z,66.44
2023-04-15T05:01:13.077Z,66.51
2023-04-15T05:03:59.245Z,65.34
2023-04-15T05:06:45.443Z,65.43
2023-04-15T05:09:31.393Z,64.81
2023-04-15T05:12:17.274Z,64.89
2023-04-15T05:15:03.056Z,64.28
2023-04-15T05:17:49.018Z,64.68
2023-04-15T05:20:35.014Z,65.14
2023-04-15T05:23:20.876Z,64.93
2023-04-15T05:26:06.816Z,64.36
2023-04-15T05:28:52.642Z,65.20
2023-04-15T05:31:38.614Z,65.46
2023-04-15T05:34:24.538Z,65.01
2023-04-15T05:37:10.392Z,64.49
2023-04-15T05:39:56.357Z,65.99
2023-04-15T05:42:42.261Z,66.64
2023-04-15T05:45:28.133Z,67.43
2023-04-15T05:48:14.033Z,67.13
2023-04-15T05:50:59.796Z,67.29
2023-04-15T05:53:45.766Z,66.19
2023-04-15T05:56:31.720Z,65.55
2023-04-15T05:59:17.538Z,64.90
2023-04-15T06:02:03.495Z,63.69
2023-04-15T06:04:49.339Z,63.69
2023-04-15T06:07:35.339Z,63.44
2023-04-15T06:10:21.374Z,63.07
2023-04-15T06:13:07.270Z,63.73
2023-04-15T06:15:53.081Z,63.51
2023-04-15T06:18:39.110Z,63.43
2023-04-15T06:21:24.888Z,63.05
2023-04-15T06:24:12.678Z,62.59
2023-04-15T06:26:58.722Z,62.54
2023-04-15T06:29:44.565Z,62.76
2023-04-15T06:32:30.481Z,63.76
2023-04-15T06:35:16.233Z,64.99
2023-04-15T06:38:02.091Z,67.28
2023-04-15T06:40:47.989Z,72.12
2023-04-15T06:43:33.894Z,75.35
2023-04-15T06:46:20.021Z,77.68
2023-04-15T06:49:06.281Z,79.03
2023-04-15T06:51:52.233Z,78.43
2023-04-15T06:54:38.173Z,75.89
2023-04-15T06:57:23.843Z,75.80
2023-04-15T07:00:09.808Z,73.28
2023-04-15T07:02:55.825Z,73.02
2023-04-15T07:05:42.014Z,74.25
2023-04-15T07:08:27.913Z,72.98
2023-04-15T07:11:13.893Z,71.45
2023-04-15T07:13:59.790Z,71.13
2023-04-15T07:16:47.775Z,70.90
2023-04-15T07:19:33.635Z,69.98
2023-04-15T07:22:20.550Z,68.82
2023-04-15T07:25:07.009Z,68.82
2023-04-15T07:27:52.815Z,68.56
2023-04-15T07:30:38.683Z,69.66
2023-04-15T07:33:24.651Z,69.59
2023-04-15T07:36:10.575Z,71.21
2023-04-15T07:38:56.367Z,71.15
2023-04-15T07:41:42.204Z,72.15
2023-04-15T07:44:28.078Z,70.51
2023-04-15T07:47:13.916Z,71.73
2023-04-15T07:49:59.696Z,69.82
2023-04-15T07:52:45.519Z,71.13
2023-04-15T07:55:31.353Z,71.23
2023-04-15T07:58:17.137Z,71.50
2023-04-15T08:01:02.954Z,70.84
2023-04-15T08:03:48.900Z,70.40
2023-04-15T08:06:35.180Z,69.08
2023-04-15T08:09:23.228Z,70.53
2023-04-15T08:12:09.038Z,70.61
2023-04-15T08:14:55.010Z,72.01
2023-04-15T08:17:40.989Z,71.23
2023-04-15T08:20:26.927Z,71.51
2023-04-15T08:23:12.728Z,70.32
2023-04-15T08:25:58.425Z,72.96
2023-04-15T08:28:44.196Z,72.25
2023-04-15T08:31:30.266Z,70.11
2023-04-15T08:34:16.069Z,70.04
2023-04-15T08:37:01.876Z,70.84
2023-04-15T08:39:47.872Z,70.07
2023-04-15T08:42:33.620Z,69.23
2023-04-15T08:45:19.609Z,69.11
2023-04-15T08:48:05.477Z,68.33
2023-04-15T08:50:51.371Z,67.95
2023-04-15T08:53:37.197Z,68.36
2023-04-15T08:56:23.052Z,69.68
2023-04-15T08:59:08.797Z,69.78
2023-04-15T09:01:54.689Z,69.17
2023-04-15T09:04:40.529Z,67.46
2023-04-15T09:07:26.428Z,67.47
2023-04-15T09:10:12.107Z,67.58
2023-04-15T09:12:57.971Z,68.78
2023-04-15T09:15:43.856Z,69.18
2023-04-15T09:18:29.856Z,68.90
2023-04-15T09:21:15.914Z,68.04
2023-04-15T09:24:01.987Z,68.27
2023-04-15T09:26:48.123Z,68.65
2023-04-15T09:29:34.024Z,67.93
2023-04-15T09:32:19.812Z,68.91
2023-04-15T09:35:05.634Z,69.74
2023-04-15T09:37:51.461Z,68.29
2023-04-15T09:40:37.306Z,68.43
2023-04-15T09:43:23.133Z,68.02
2023-04-15T09:46:08.901Z,68.51
2023-04-15T09:48:54.865Z,68.09
2023-04-15T09:54:27.140Z,68.18
2023-04-15T09:57:13.012Z,67.30
2023-04-15T09:59:58.943Z,67.89
2023-04-15T10:02:44.795Z,66.88
2023-04-15T10:05:31.364Z,68.06
2023-04-15T10:08:17.445Z,68.39
2023-04-15T10:11:03.355Z,67.21
2023-04-15T10:13:49.389Z,68.42
2023-04-15T10:16:35.180Z,67.97
2023-04-15T10:19:20.999Z,69.32
2023-04-15T10:22:06.758Z,69.62
2023-04-15T10:24:52.653Z,69.35
2023-04-15T10:27:38.554Z,67.59
2023-04-15T10:30:24.352Z,69.62
2023-04-15T10:33:10.248Z,68.61
2023-04-15T10:35:56.205Z,68.04
2023-04-15T10:38:41.973Z,69.72
2023-04-15T10:41:27.990Z,68.55
2023-04-15T10:44:13.758Z,70.65
2023-04-15T10:46:59.782Z,70.23
2023-04-15T10:49:45.753Z,69.50
2023-04-15T10:52:33.608Z,69.07
2023-04-15T10:55:19.620Z,69.69
2023-04-15T10:58:05.646Z,70.86
2023-04-15T11:00:51.468Z,70.10
2023-04-15T11:03:37.519Z,69.49
2023-04-15T11:06:23.691Z,68.95
2023-04-15T11:09:09.466Z,69.27
2023-04-15T11:11:55.353Z,69.81
2023-04-15T11:14:41.112Z,69.53
2023-04-15T11:17:26.937Z,69.88
2023-04-15T11:20:12.949Z,69.30
2023-04-15T11:23:10.836Z,69.30
2023-04-15T11:26:01.610Z,68.16
2023-04-15T11:28:47.592Z,68.85
2023-04-15T11:31:33.365Z,68.10
2023-04-15T11:34:19.408Z,67.81
2023-04-15T11:37:05.237Z,67.46
2023-04-15T11:39:51.152Z,66.35
2023-04-15T11:42:46.737Z,68.13
2023-04-15T11:45:35.642Z,67.43
2023-04-15T11:48:21.599Z,67.04
2023-04-15T11:51:07.451Z,66.01
2023-04-15T11:53:53.531Z,66.96
2023-04-15T11:56:39.459Z,67.04
2023-04-15T11:59:28.186Z,66.40
2023-04-15T12:02:18.837Z,66.50
2023-04-15T12:05:05.114Z,67.32
2023-04-15T12:07:51.166Z,66.22
2023-04-15T12:10:37.011Z,63.86
2023-04-15T12:13:22.890Z,65.81
2023-04-15T12:16:08.788Z,65.70
2023-04-15T12:18:54.649Z,66.86
2023-04-15T12:21:40.541Z,66.04
2023-04-15T12:24:26.251Z,65.34
2023-04-15T12:27:12.140Z,66.46
2023-04-15T12:29:58.031Z,66.25
2023-04-15T12:32:43.908Z,66.16
2023-04-15T12:35:29.981Z,66.17
2023-04-15T12:38:15.804Z,66.05
2023-04-15T12:41:01.861Z,66.56
2023-04-15T12:43:47.835Z,67.64
2023-04-15T12:46:33.636Z,65.32
2023-04-15T12:49:19.532Z,65.16
2023-04-15T12:52:05.431Z,65.26
2023-04-15T12:54:51.384Z,65.05
2023-04-15T12:57:37.434Z,64.75
2023-04-15T13:00:23.301Z,64.73
2023-04-15T13:03:09.201Z,64.67
2023-04-15T13:05:55.561Z,64.15
2023-04-15T13:08:47.947Z,65.04
2023-04-15T13:11:41.152Z,64.83
2023-04-15T13:14:26.957Z,65.33
2023-04-15T13:17:12.825Z,65.57
2023-04-15T13:19:58.730Z,63.75
2023-04-15T13:22:44.557Z,64.42
2023-04-15T13:25:30.523Z,65.25
2023-04-15T13:28:18.354Z,65.06
2023-04-15T13:31:04.234Z,64.98
2023-04-15T13:33:50.169Z,62.80
2023-04-15T13:36:35.990Z,65.41
2023-04-15T13:39:21.865Z,65.74
2023-04-15T13:42:07.735Z,65.27
2023-04-15T13:44:53.652Z,64.79
2023-04-15T13:47:39.594Z,64.68
2023-04-15T13:50:25.415Z,63.48
2023-04-15T13:53:11.391Z,64.92
2023-04-15T13:55:57.293Z,64.49
2023-04-15T13:58:43.185Z,65.15
2023-04-15T14:01:29.273Z,64.96
2023-04-15T14:04:15.205Z,65.94
2023-04-15T14:07:03.365Z,65.70
2023-04-15T14:09:50.567Z,64.18
2023-04-15T14:12:36.512Z,65.76
2023-04-15T14:15:22.432Z,66.74
2023-04-15T14:18:08.388Z,65.31
2023-04-15T14:20:54.222Z,65.04
2023-04-15T14:23:40.083Z,63.88
2023-04-15T14:26:26.024Z,64.36
2023-04-15T14:29:11.839Z,63.76
2023-04-15T14:32:11.039Z,63.57
2023-04-15T14:34:58.391Z,62.56
2023-04-15T14:37:44.403Z,63.02
2023-04-15T14:40:30.350Z,62.51
2023-04-15T14:43:16.147Z,62.27
2023-04-15T14:46:02.044Z,63.10
2023-04-15T14:48:48.316Z,62.27
2023-04-15T14:51:34.178Z,62.25
2023-04-15T14:54:21.915Z,61.13
2023-04-15T14:57:08.520Z,60.46
2023-04-15T14:59:54.416Z,60.26
2023-04-15T15:02:40.749Z,60.05
2023-04-15T15:05:26.822Z,60.49
2023-04-15T15:08:13.059Z,59.58
2023-04-15T15:10:59.009Z,60.17
2023-04-15T15:13:44.851Z,59.67
2023-04-15T15:16:30.841Z,58.79
2023-04-15T15:19:17.009Z,59.08
2023-04-15T15:22:02.869Z,58.52
2023-04-15T15:24:48.839Z,58.70
2023-04-15T15:27:37.089Z,58.03
2023-04-15T15:30:24.053Z,57.06
2023-04-15T15:33:09.994Z,56.98
2023-04-15T15:35:56.004Z,56.67
2023-04-15T15:38:41.914Z,56.69
2023-04-15T15:41:29.934Z,55.98
2023-04-15T15:44:15.897Z,55.94
2023-04-15T15:47:01.728Z,56.02
2023-04-15T15:49:48.085Z,55.71
2023-04-15T15:52:34.038Z,55.42
2023-04-15T15:55:19.873Z,54.58
2023-04-15T15:58:05.797Z,54.97
2023-04-15T16:00:51.696Z,54.55
2023-04-15T16:03:37.847Z,55.11
2023-04-15T16:06:24.368Z,54.24
2023-04-15T16:09:10.120Z,55.03
2023-04-15T16:11:56.061Z,54.97
2023-04-15T16:14:42.012Z,55.23
2023-04-15T16:17:27.854Z,54.45
2023-04-15T16:20:13.770Z,55.30
2023-04-15T16:22:59.732Z,55.52
2023-04-15T16:25:45.722Z,54.85
2023-04-15T16:28:31.718Z,55.00
2023-04-15T16:31:17.521Z,54.58
2023-04-15T16:34:03.529Z,54.57
2023-04-15T16:36:49.407Z,54.57
2023-04-15T16:39:35.302Z,55.28
2023-04-15T16:42:21.340Z,55.26
2023-04-15T16:45:07.252Z,55.21
2023-04-15T16:47:53.164Z,55.00
2023-04-15T16:50:39.186Z,54.46
2023-04-15T16:53:25.044Z,54.81
2023-04-15T16:56:10.922Z,54.84
2023-04-15T16:58:56.748Z,54.66
2023-04-15T17:01:42.807Z,55.07
2023-04-15T17:04:28.889Z,54.91
2023-04-15T17:07:15.141Z,55.03
2023-04-15T17:10:01.009Z,54.84
2023-04-15T17:12:46.933Z,54.49
2023-04-15T17:15:32.725Z,54.80
2023-04-15T17:18:20.666Z,54.49
2023-04-15T17:21:06.785Z,54.92
2023-04-15T17:23:52.828Z,55.04
2023-04-15T17:26:38.786Z,55.04
2023-04-15T17:29:24.744Z,55.11
2023-04-15T17:32:10.528Z,54.41
2023-04-15T17:34:56.329Z,53.69
2023-04-15T17:37:42.252Z,53.90
2023-04-15T17:40:28.194Z,53.71
2023-04-15T17:43:14.167Z,53.82
2023-04-15T17:46:00.174Z,53.69
2023-04-15T17:48:46.112Z,53.19
2023-04-15T17:51:31.904Z,52.90
2023-04-15T17:54:18.009Z,53.19
2023-04-15T17:57:03.833Z,53.06
2023-04-15T17:59:49.599Z,52.98
2023-04-15T18:02:37.247Z,53.13
2023-04-15T18:05:23.556Z,53.09
2023-04-15T18:08:09.338Z,52.00
2023-04-15T18:10:55.233Z,52.02
2023-04-15T18:13:43.190Z,52.27
2023-04-15T18:16:29.734Z,52.71
2023-04-15T18:19:15.617Z,52.89
2023-04-15T18:22:01.463Z,53.13
2023-04-15T18:24:47.413Z,53.68
2023-04-15T18:27:33.358Z,54.26
2023-04-15T18:30:19.115Z,55.57
2023-04-15T18:33:05.133Z,55.67
2023-04-15T18:35:51.263Z,56.36
2023-04-15T18:38:37.178Z,55.36
2023-04-15T18:41:23.129Z,56.25
2023-04-15T18:44:09.013Z,55.93
2023-04-15T18:46:54.995Z,56.11
2023-04-15T18:49:40.766Z,57.45
2023-04-15T18:52:26.745Z,59.70
2023-04-15T18:55:12.609Z,61.66
2023-04-15T18:58:06.567Z,62.37
2023-04-15T19:00:55.237Z,62.32
2023-04-15T19:03:41.096Z,60.99
2023-04-15T19:06:27.197Z,60.56
2023-04-15T19:09:13.380Z,59.94
2023-04-15T19:11:59.290Z,59.32
2023-04-15T19:14:47.081Z,60.18
2023-04-15T19:17:33.215Z,61.04
2023-04-15T19:20:19.277Z,63.86
2023-04-15T19:23:05.160Z,65.26
2023-04-15T19:25:51.120Z,67.17
2023-04-15T19:28:36.958Z,66.60
2023-04-15T19:31:23.106Z,65.55
2023-04-15T19:34:09.285Z,64.69
2023-04-15T19:36:55.152Z,65.01
2023-04-15T19:39:41.097Z,65.52
2023-04-15T19:42:26.882Z,65.09
2023-04-15T19:45:12.629Z,65.09
2023-04-15T19:47:58.563Z,65.09
2023-04-15T19:50:44.587Z,63.99
2023-04-15T19:53:30.485Z,62.15
2023-04-15T19:56:16.215Z,60.86
2023-04-15T19:59:02.293Z,60.15
2023-04-15T20:01:48.736Z,58.48
2023-04-15T20:04:35.022Z,58.03
2023-04-15T20:07:20.979Z,59.18
2023-04-15T20:10:12.145Z,60.16
2023-04-15T20:12:59.087Z,60.47
2023-04-15T20:15:45.089Z,60.26
2023-04-15T20:18:30.898Z,61.24
2023-04-15T20:21:16.817Z,64.59
2023-04-15T20:24:02.905Z,65.78
2023-04-15T20:26:49.258Z,67.90
2023-04-15T20:29:34.949Z,69.67
2023-04-15T20:32:20.850Z,70.01
2023-04-15T20:35:06.874Z,69.85
2023-04-15T20:37:52.845Z,68.79
2023-04-15T20:43:24.663Z,66.18
2023-04-15T20:46:20.463Z,64.26
2023-04-15T20:49:07.621Z,63.35
2023-04-15T20:51:53.944Z,64.10
2023-04-15T20:54:39.720Z,64.64
2023-04-15T20:57:25.532Z,63.64
2023-04-15T21:00:11.498Z,62.89
2023-04-15T21:02:57.461Z,62.47
2023-04-15T21:05:43.802Z,62.84
2023-04-15T21:08:29.784Z,62.14
2023-04-15T21:11:28.319Z,62.56
2023-04-15T21:14:21.516Z,62.05
2023-04-15T21:17:10.197Z,62.45
2023-04-15T21:19:57.075Z,61.77
2023-04-15T21:22:42.959Z,61.49
2023-04-15T21:25:28.771Z,61.69
2023-04-15T21:28:14.691Z,61.38
2023-04-15T21:31:00.471Z,59.24
2023-04-15T21:33:48.594Z,58.40
2023-04-15T21:36:34.561Z,58.95
2023-04-15T21:39:20.463Z,58.46
2023-04-15T21:42:06.483Z,57.33
2023-04-15T21:44:52.329Z,58.65
2023-04-15T21:47:59.692Z,58.03
2023-04-15T21:50:44.499Z,57.20
2023-04-15T21:53:30.348Z,58.17
2023-04-15T21:56:16.339Z,57.83
2023-04-15T21:59:04.328Z,57.74
2023-04-15T22:01:50.595Z,57.43
2023-04-15T22:04:36.830Z,57.05
2023-04-15T22:07:22.674Z,56.71
2023-04-15T22:10:08.605Z,56.34
2023-04-15T22:12:54.579Z,56.13
2023-04-15T22:15:40.573Z,55.83
2023-04-15T22:18:26.329Z,55.88
2023-04-15T22:21:12.292Z,55.43
2023-04-15T22:24:32.533Z,55.02
2023-04-15T22:27:04.629Z,55.07
2023-04-15T22:29:50.489Z,55.15
2023-04-15T22:32:36.557Z,54.25
2023-04-15T22:35:22.635Z,54.21
2023-04-15T22:38:08.532Z,54.64
2023-04-15T22:40:54.408Z,55.63
2023-04-15T22:43:40.098Z,56.05
2023-04-15T22:46:26.170Z,54.73
2023-04-15T22:49:12.125Z,58.26
2023-04-15T22:51:57.954Z,58.95
2023-04-15T22:54:43.774Z,62.54
2023-04-15T22:57:29.720Z,62.25
2023-04-15T23:03:57.024Z,68.14
2023-04-15T23:06:51.629Z,65.37
2023-04-15T23:09:37.640Z,65.45
2023-04-15T23:12:23.440Z,64.26
2023-04-15T23:15:09.258Z,65.87
2023-04-15T23:17:55.283Z,64.37
2023-04-15T23:20:41.143Z,63.74
2023-04-15T23:23:27.061Z,65.39
2023-04-15T23:26:12.989Z,64.96
2023-04-15T23:28:58.704Z,65.68
2023-04-15T23:31:44.753Z,67.52
2023-04-15T23:34:32.588Z,70.17
2023-04-15T23:37:18.476Z,67.38
2023-04-15T23:40:04.310Z,69.53
2023-04-15T23:42:50.293Z,69.43
2023-04-15T23:45:36.204Z,73.01
2023-04-15T23:48:22.128Z,75.04
2023-04-15T23:51:07.955Z,77.44
2023-04-15T23:53:53.987Z,77.36
2023-04-15T23:56:39.950Z,76.48
2023-04-15T23:59:25.701Z,79.34
